Time;durP1;ratioP1;P1;durP2;ratioP2;P2;SDS_P1;SDS_P2;PMS_P1;PMS_P2;Temp;Humidity;BMP_temperature;BMP_pressure;BME280_temperature;BME280_humidity;BME280_pressure;Samples;Min_cycle;Max_cycle;Signal;HPM_P1;HPM_P2
2024/02/15 00:00:40;;;;;;;6.93;5.63;;;12.80;99.90;;;;;;5091055;28;20568;-74
2024/02/15 00:03:08;;;;;;;9.70;6.60;;;12.80;99.90;;;;;;5071593;28;20183;-73
2024/02/15 00:05:37;;;;;;;8.93;6.07;;;12.80;99.90;;;;;;5071070;28;20177;-73
2024/02/15 00:08:04;;;;;;;10.27;6.27;;;12.80;99.90;;;;;;5071687;28;20265;-73
2024/02/15 00:10:29;;;;;;;10.10;6.13;;;12.80;99.90;;;;;;5070427;28;20201;-74
2024/02/15 00:12:55;;;;;;;10.17;6.27;;;12.90;99.90;;;;;;5070802;28;20173;-75
2024/02/15 00:15:21;;;;;;;7.10;6.30;;;12.90;99.90;;;;;;5081930;28;20180;-73
2024/02/15 00:17:46;;;;;;;7.70;5.73;;;12.90;99.90;;;;;;5091407;28;20170;-73
2024/02/15 00:20:12;;;;;;;12.23;6.20;;;12.80;99.90;;;;;;5091077;28;20759;-74
2024/02/15 00:22:41;;;;;;;12.30;5.77;;;12.80;99.90;;;;;;5091148;28;20169;-73
2024/02/15 00:25:08;;;;;;;6.90;5.83;;;12.80;99.90;;;;;;5090952;28;20252;-74
2024/02/15 00:27:37;;;;;;;19.20;6.80;;;12.80;99.90;;;;;;5091093;28;20162;-74
2024/02/15 00:30:05;;;;;;;10.90;6.30;;;12.90;99.90;;;;;;5079861;28;20288;-73
2024/02/15 00:32:30;;;;;;;13.00;6.70;;;12.80;99.90;;;;;;5070433;28;20178;-73
2024/02/15 00:34:56;;;;;;;7.53;5.27;;;12.80;99.90;;;;;;5070807;28;20575;-74
2024/02/15 00:37:22;;;;;;;7.00;5.40;;;12.90;99.90;;;;;;5070862;28;20194;-73
2024/02/15 00:39:48;;;;;;;8.93;5.50;;;12.90;99.90;;;;;;5070513;28;20227;-73
2024/02/15 00:42:13;;;;;;;10.03;5.97;;;12.90;99.90;;;;;;5072631;28;20208;-73
2024/02/15 00:44:39;;;;;;;6.73;5.47;;;12.90;99.90;;;;;;5090629;28;20187;-73
2024/02/15 00:47:05;;;;;;;9.80;5.40;;;12.90;99.90;;;;;;5093334;28;20170;-73
2024/02/15 00:49:31;;;;;;;9.97;5.60;;;13.00;99.90;;;;;;5094541;28;20256;-74
2024/02/15 00:51:57;;;;;;;9.30;6.13;;;13.00;99.90;;;;;;5094570;28;20286;-72
2024/02/15 00:54:23;;;;;;;8.13;5.40;;;13.00;99.90;;;;;;5094216;28;20215;-74
2024/02/15 00:56:48;;;;;;;13.20;6.10;;;13.00;99.90;;;;;;5094099;28;20543;-74
2024/02/15 00:59:14;;;;;;;10.63;5.80;;;13.00;99.90;;;;;;5093665;28;20173;-74
2024/02/15 01:01:40;;;;;;;7.63;5.70;;;13.00;99.90;;;;;;5094384;28;20276;-74
2024/02/15 01:04:06;;;;;;;6.80;5.67;;;13.00;99.90;;;;;;5094934;28;20654;-75
2024/02/15 01:06:32;;;;;;;7.40;6.13;;;13.00;99.90;;;;;;5094193;28;20188;-73
2024/02/15 01:09:01;;;;;;;11.63;5.60;;;13.00;99.90;;;;;;5094107;28;20165;-73
2024/02/15 01:11:28;;;;;;;13.67;6.87;;;13.00;99.90;;;;;;5081221;28;20213;-74
2024/02/15 01:13:54;;;;;;;8.33;5.53;;;13.10;99.90;;;;;;5074029;28;20204;-74
2024/02/15 01:16:21;;;;;;;11.87;6.03;;;13.10;99.90;;;;;;5073876;28;20204;-73
2024/02/15 01:18:47;;;;;;;9.23;5.80;;;13.10;99.90;;;;;;5056401;28;20257;-74
2024/02/15 01:21:13;;;;;;;6.80;5.63;;;13.00;99.90;;;;;;5093644;28;20280;-74
2024/02/15 01:23:39;;;;;;;11.57;5.10;;;13.10;99.90;;;;;;5094026;28;20165;-74
2024/02/15 01:26:05;;;;;;;11.07;5.20;;;13.10;99.90;;;;;;5093972;28;20222;-74
2024/02/15 01:28:30;;;;;;;13.20;5.60;;;13.10;99.90;;;;;;5093613;28;20165;-74
2024/02/15 01:30:56;;;;;;;10.00;6.03;;;13.10;99.90;;;;;;5093722;28;20201;-74
2024/02/15 01:33:22;;;;;;;13.07;5.90;;;13.10;99.90;;;;;;5093580;28;20166;-74
2024/02/15 01:35:48;;;;;;;5.70;5.10;;;13.10;99.90;;;;;;5074046;28;20178;-74
2024/02/15 01:38:14;;;;;;;9.40;5.80;;;13.10;99.90;;;;;;5075210;28;20166;-73
2024/02/15 01:40:40;;;;;;;15.23;5.43;;;13.10;99.90;;;;;;5093420;28;20228;-73
2024/02/15 01:43:05;;;;;;;10.87;5.03;;;13.10;99.90;;;;;;5093237;28;20205;-73
2024/02/15 01:45:31;;;;;;;8.37;5.00;;;13.00;99.90;;;;;;5093804;28;20608;-73
2024/02/15 01:47:57;;;;;;;11.20;5.43;;;13.00;99.90;;;;;;5084280;28;20217;-73
2024/02/15 01:50:24;;;;;;;10.80;5.30;;;13.00;99.90;;;;;;5073005;28;20512;-73
2024/02/15 01:52:52;;;;;;;10.40;5.20;;;12.90;99.90;;;;;;5073137;28;20170;-73
2024/02/15 01:55:18;;;;;;;9.37;5.00;;;12.90;99.90;;;;;;5073159;28;20181;-74
2024/02/15 01:57:45;;;;;;;9.10;5.67;;;13.00;99.90;;;;;;5072425;28;20193;-74
2024/02/15 02:00:12;;;;;;;10.70;5.00;;;13.00;99.90;;;;;;5072966;28;20240;-73
2024/02/15 02:02:41;;;;;;;9.40;5.00;;;12.90;99.90;;;;;;5080820;28;20550;-74
2024/02/15 02:05:07;;;;;;;7.23;4.97;;;12.90;99.90;;;;;;5093298;28;20169;-74
2024/02/15 02:07:33;;;;;;;9.77;4.87;;;12.90;99.90;;;;;;5076102;28;20263;-73
2024/02/15 02:09:59;;;;;;;9.83;5.10;;;12.90;99.90;;;;;;5073051;28;20505;-73
2024/02/15 02:12:27;;;;;;;9.83;5.07;;;12.80;99.90;;;;;;5072822;28;20637;-73
2024/02/15 02:14:53;;;;;;;8.37;5.83;;;12.80;99.90;;;;;;5072800;28;20166;-73
2024/02/15 02:17:20;;;;;;;7.27;5.33;;;12.80;99.90;;;;;;5072888;28;20213;-73
2024/02/15 02:19:46;;;;;;;5.83;5.23;;;12.70;99.90;;;;;;5072732;28;20583;-74
2024/02/15 02:22:11;;;;;;;8.13;5.10;;;12.70;99.90;;;;;;5089253;28;20208;-74
2024/02/15 02:25:08;;;;;;;6.90;4.90;;;12.60;99.90;;;;;;5093086;28;20175;-74
2024/02/15 02:27:34;;;;;;;7.53;5.20;;;12.60;99.90;;;;;;5086548;28;20189;-73
2024/02/15 02:30:00;;;;;;;12.40;5.53;;;12.50;99.90;;;;;;5092481;28;20292;-74
2024/02/15 02:32:27;;;;;;;7.13;5.10;;;12.50;99.90;;;;;;5092416;28;20252;-73
2024/02/15 02:34:57;;;;;;;6.87;5.77;;;12.50;99.90;;;;;;5080059;28;20176;-74
2024/02/15 02:37:24;;;;;;;5.77;4.90;;;12.50;99.90;;;;;;5072195;28;20311;-73
2024/02/15 02:39:50;;;;;;;8.53;4.47;;;12.30;99.90;;;;;;5072118;28;20174;-74
2024/02/15 02:42:15;;;;;;;5.07;4.57;;;12.30;99.90;;;;;;5071577;28;20215;-73
2024/02/15 02:44:41;;;;;;;4.67;4.30;;;12.20;99.90;;;;;;5072125;28;20597;-73
2024/02/15 02:47:06;;;;;;;4.60;4.20;;;12.10;99.90;;;;;;5072266;28;20177;-74
2024/02/15 02:49:35;;;;;;;6.50;4.20;;;12.10;99.90;;;;;;5083077;28;20273;-73
2024/02/15 02:52:00;;;;;;;6.33;4.50;;;12.00;99.90;;;;;;5092047;28;20196;-73
2024/02/15 02:54:26;;;;;;;4.53;4.20;;;12.00;99.90;;;;;;5092143;28;20560;-74
2024/02/15 02:56:51;;;;;;;6.00;4.00;;;12.00;99.90;;;;;;5092340;28;20677;-73
2024/02/15 02:59:17;;;;;;;4.50;4.20;;;11.90;99.90;;;;;;5092321;28;20277;-73
2024/02/15 03:01:42;;;;;;;5.63;4.20;;;11.90;99.90;;;;;;5075403;28;20690;-74
2024/02/15 03:04:08;;;;;;;4.50;4.10;;;11.90;99.90;;;;;;5072082;28;20261;-74
2024/02/15 03:06:34;;;;;;;4.73;4.30;;;11.90;99.90;;;;;;5072074;28;20548;-74
2024/02/15 03:09:00;;;;;;;4.43;4.13;;;11.80;99.90;;;;;;5072121;28;20614;-74
2024/02/15 03:11:27;;;;;;;4.50;4.20;;;11.80;99.90;;;;;;5070990;28;20218;-74
2024/02/15 03:13:53;;;;;;;4.30;3.90;;;11.80;99.90;;;;;;5090414;28;20523;-73
2024/02/15 03:16:24;;;;;;;5.20;4.00;;;11.80;99.90;;;;;;5091831;28;20207;-73
2024/02/15 03:18:51;;;;;;;5.17;4.20;;;11.80;99.90;;;;;;5092510;28;20176;-73
2024/02/15 03:21:17;;;;;;;4.63;4.20;;;11.80;99.90;;;;;;5092020;28;20211;-73
2024/02/15 03:23:43;;;;;;;5.93;4.57;;;11.80;99.90;;;;;;5087262;28;20648;-74
2024/02/15 03:26:09;;;;;;;4.33;4.03;;;11.80;99.90;;;;;;5072328;28;20177;-73
2024/02/15 03:28:36;;;;;;;5.87;4.70;;;11.80;99.90;;;;;;5077959;28;20201;-73
2024/02/15 03:31:02;;;;;;;6.00;4.40;;;11.80;99.90;;;;;;5091932;28;20258;-73
2024/02/15 03:33:33;;;;;;;5.00;4.63;;;11.80;99.90;;;;;;5091672;28;20248;-73
2024/02/15 03:36:02;;;;;;;5.90;4.37;;;11.90;99.90;;;;;;5091916;28;20161;-73
2024/02/15 03:38:29;;;;;;;5.20;4.63;;;11.90;99.90;;;;;;5091721;28;20162;-73
2024/02/15 03:40:55;;;;;;;5.27;4.43;;;11.90;99.90;;;;;;5091662;28;20195;-73
2024/02/15 03:43:23;;;;;;;5.53;4.40;;;11.90;99.90;;;;;;5084899;28;20240;-73
2024/02/15 03:45:49;;;;;;;4.97;4.47;;;11.90;99.90;;;;;;5071428;28;20536;-74
2024/02/15 03:48:15;;;;;;;4.77;4.23;;;12.00;99.90;;;;;;5071886;28;20316;-73
2024/02/15 03:50:41;;;;;;;5.13;4.63;;;12.00;99.90;;;;;;5071972;28;20198;-73
2024/02/15 03:53:08;;;;;;;4.77;4.27;;;12.00;99.90;;;;;;5072433;28;20648;-73
2024/02/15 03:55:36;;;;;;;5.40;4.33;;;12.00;99.90;;;;;;5071829;28;20185;-73
2024/02/15 03:58:01;;;;;;;4.83;4.50;;;11.90;99.90;;;;;;5090310;28;20181;-73
2024/02/15 04:00:27;;;;;;;4.80;4.40;;;11.90;99.90;;;;;;5091735;28;20250;-74
2024/02/15 04:02:53;;;;;;;4.73;4.30;;;11.90;99.90;;;;;;5091305;28;20181;-73
2024/02/15 04:05:21;;;;;;;7.03;4.23;;;11.80;99.90;;;;;;5091657;28;20592;-73
2024/02/15 04:07:47;;;;;;;5.30;4.80;;;11.80;99.90;;;;;;5091584;28;20169;-73
2024/02/15 04:10:13;;;;;;;8.10;5.53;;;11.70;99.90;;;;;;5091413;28;20208;-74
2024/02/15 04:12:41;;;;;;;8.17;5.60;;;11.60;99.90;;;;;;5073517;28;20178;-73
2024/02/15 04:15:11;;;;;;;6.60;6.00;;;11.60;99.90;;;;;;5071390;28;20162;-73
2024/02/15 04:17:38;;;;;;;7.23;6.47;;;11.60;99.90;;;;;;5071278;28;20227;-73
2024/02/15 04:20:06;;;;;;;7.80;6.73;;;11.60;99.90;;;;;;5071083;28;20189;-73
2024/02/15 04:22:36;;;;;;;11.30;6.80;;;11.60;99.90;;;;;;5074053;28;20169;-73
2024/02/15 04:25:06;;;;;;;7.30;6.60;;;11.60;99.90;;;;;;5085556;28;20174;-73
2024/02/15 04:27:35;;;;;;;8.50;7.57;;;11.60;99.90;;;;;;5095331;28;20176;-73
2024/02/15 04:30:04;;;;;;;7.57;6.87;;;11.60;99.90;;;;;;5095022;28;20205;-73
2024/02/15 04:32:33;;;;;;;7.67;6.83;;;11.60;99.90;;;;;;5094902;28;20513;-73
2024/02/15 04:34:59;;;;;;;8.40;7.17;;;11.60;99.90;;;;;;5095365;28;20173;-73
2024/02/15 04:37:27;;;;;;;7.63;6.90;;;11.70;99.90;;;;;;5095244;28;20172;-73
2024/02/15 04:39:52;;;;;;;10.53;7.43;;;11.70;99.90;;;;;;5083876;28;20259;-73
2024/02/15 04:42:18;;;;;;;12.13;7.03;;;11.70;99.90;;;;;;5074604;28;20182;-73
2024/02/15 04:44:44;;;;;;;8.97;7.13;;;11.70;99.90;;;;;;5074270;28;20249;-73
2024/02/15 04:47:09;;;;;;;9.63;7.40;;;11.70;99.90;;;;;;5074910;28;20730;-73
2024/02/15 04:49:38;;;;;;;7.70;7.03;;;11.70;99.90;;;;;;5074480;28;20170;-73
2024/02/15 04:52:05;;;;;;;8.30;7.50;;;11.70;99.90;;;;;;5074324;28;20271;-73
2024/02/15 04:54:32;;;;;;;10.43;6.90;;;11.70;99.90;;;;;;5074442;28;20190;-73
2024/02/15 04:56:58;;;;;;;6.97;6.27;;;11.70;99.90;;;;;;5075276;28;20178;-73
2024/02/15 04:59:25;;;;;;;9.27;6.57;;;11.70;99.90;;;;;;5074426;28;20177;-74
2024/02/15 05:01:52;;;;;;;7.13;6.23;;;11.70;99.90;;;;;;5073880;28;20239;-73
2024/02/15 05:04:18;;;;;;;7.57;6.53;;;11.70;99.90;;;;;;5073758;28;20174;-74
2024/02/15 05:06:45;;;;;;;7.00;6.23;;;11.70;99.90;;;;;;5084387;28;20243;-73
2024/02/15 05:09:11;;;;;;;8.63;6.40;;;11.70;99.90;;;;;;5094255;28;20161;-73
2024/02/15 05:11:41;;;;;;;7.07;6.40;;;11.70;99.90;;;;;;5093997;28;20205;-73
2024/02/15 05:14:07;;;;;;;10.80;5.90;;;11.70;99.90;;;;;;5094407;28;20265;-73
2024/02/15 05:16:34;;;;;;;6.73;6.00;;;11.70;99.90;;;;;;5094583;28;20178;-73
2024/02/15 05:18:59;;;;;;;7.60;5.87;;;11.70;99.90;;;;;;5092208;28;20178;-73
2024/02/15 05:21:25;;;;;;;10.07;6.47;;;11.70;99.90;;;;;;5093746;28;20571;-73
2024/02/15 05:23:52;;;;;;;6.70;6.03;;;11.70;99.90;;;;;;5094345;28;20535;-73
2024/02/15 05:26:23;;;;;;;7.00;5.80;;;11.70;99.90;;;;;;5094040;28;20173;-73
2024/02/15 05:28:49;;;;;;;6.40;5.80;;;11.70;99.90;;;;;;5093644;28;20513;-73
2024/02/15 05:31:20;;;;;;;6.10;5.60;;;11.70;99.90;;;;;;5093514;28;20209;-73
2024/02/15 05:33:47;;;;;;;6.50;5.27;;;11.70;99.90;;;;;;5080656;28;20628;-73
2024/02/15 05:36:20;;;;;;;9.80;5.27;;;11.70;99.90;;;;;;5073795;28;20174;-72
2024/02/15 05:38:51;;;;;;;5.20;4.80;;;11.70;99.90;;;;;;5073355;28;20166;-73
2024/02/15 05:41:17;;;;;;;5.87;5.27;;;11.70;99.90;;;;;;5073316;28;20248;-73
2024/02/15 05:43:44;;;;;;;6.93;5.37;;;11.70;99.90;;;;;;5073390;28;20248;-76
2024/02/15 05:46:10;;;;;;;5.47;4.97;;;11.60;99.90;;;;;;5088000;28;20181;-73
2024/02/15 05:48:37;;;;;;;6.77;4.90;;;11.60;99.90;;;;;;5093203;28;20170;-73
2024/02/15 05:51:03;;;;;;;5.30;4.80;;;11.60;99.90;;;;;;5092945;28;20258;-73
2024/02/15 05:53:29;;;;;;;5.97;4.77;;;11.60;99.90;;;;;;5093419;28;20169;-73
2024/02/15 05:55:57;;;;;;;9.53;5.00;;;11.60;99.90;;;;;;5093432;28;20242;-73
2024/02/15 05:58:24;;;;;;;8.67;5.40;;;11.60;99.90;;;;;;5093651;28;20165;-73
2024/02/15 06:00:50;;;;;;;8.73;5.70;;;11.60;99.90;;;;;;5092920;28;20654;-73
2024/02/15 06:03:18;;;;;;;8.57;5.93;;;11.60;99.90;;;;;;5093037;28;20234;-73
2024/02/15 06:05:44;;;;;;;6.30;5.70;;;11.60;99.90;;;;;;5077090;28;20672;-73
2024/02/15 06:10:39;;;;;;;8.47;6.30;;;11.70;99.90;;;;;;5091320;28;20211;-70
2024/02/15 06:13:05;;;;;;;10.57;6.20;;;11.70;99.90;;;;;;5092947;28;20161;-71
2024/02/15 06:15:30;;;;;;;10.90;6.73;;;11.70;99.90;;;;;;5093220;28;20668;-70
2024/02/15 06:17:57;;;;;;;7.47;6.20;;;11.70;99.90;;;;;;5092979;28;20180;-70
2024/02/15 06:20:23;;;;;;;7.50;6.13;;;11.70;99.90;;;;;;5092479;28;20749;-72
2024/02/15 06:22:48;;;;;;;12.33;6.33;;;11.80;99.90;;;;;;5092721;28;20178;-71
2024/02/15 06:25:20;;;;;;;9.07;5.97;;;11.70;99.90;;;;;;5092906;28;20649;-73
2024/02/15 06:27:46;;;;;;;7.20;5.90;;;11.80;99.90;;;;;;5092917;28;20173;-70
2024/02/15 06:41:11;;;;;;;8.83;6.37;;;11.90;99.90;;;;;;5092656;28;20248;-71
2024/02/15 06:43:37;;;;;;;9.17;6.40;;;11.90;99.90;;;;;;5092476;28;20585;-71
2024/02/15 06:46:06;;;;;;;7.27;5.60;;;11.90;99.90;;;;;;5091881;28;20257;-71
2024/02/15 06:48:32;;;;;;;10.50;6.30;;;12.00;99.90;;;;;;5090969;28;20223;-71
2024/02/15 06:50:58;;;;;;;10.40;6.10;;;12.00;99.90;;;;;;5091846;28;20247;-71
2024/02/15 06:53:24;;;;;;;10.03;6.27;;;12.00;99.90;;;;;;5073759;28;20173;-71
2024/02/15 06:55:50;;;;;;;12.43;6.20;;;12.00;99.90;;;;;;5091904;28;20173;-71
2024/02/15 06:58:16;;;;;;;9.20;6.53;;;12.00;99.90;;;;;;5091945;28;20221;-71
2024/02/15 07:00:43;;;;;;;13.43;7.47;;;12.00;99.90;;;;;;5091222;28;20557;-71
2024/02/15 07:03:10;;;;;;;10.87;6.93;;;12.00;99.90;;;;;;5091822;28;20180;-71
2024/02/15 07:05:38;;;;;;;11.17;7.13;;;11.90;99.90;;;;;;5091963;28;20248;-71
2024/02/15 07:08:05;;;;;;;11.13;7.03;;;11.90;99.90;;;;;;5091733;28;20198;-71
2024/02/15 07:10:31;;;;;;;13.33;7.13;;;11.90;99.90;;;;;;5091526;28;20208;-71
2024/02/15 07:12:57;;;;;;;9.60;6.53;;;11.80;99.90;;;;;;5091184;28;20172;-71
2024/02/15 07:15:22;;;;;;;7.83;6.63;;;11.80;99.90;;;;;;5091497;28;20560;-71
2024/02/15 07:17:48;;;;;;;8.37;7.17;;;11.80;99.90;;;;;;5091613;28;20181;-70
2024/02/15 07:20:17;;;;;;;11.33;7.07;;;11.80;99.90;;;;;;5091483;28;20197;-71
2024/02/15 07:22:45;;;;;;;9.00;7.40;;;11.80;99.90;;;;;;5091229;28;20176;-71
2024/02/15 07:25:11;;;;;;;9.00;6.87;;;11.90;99.90;;;;;;5091777;28;20174;-70
2024/02/15 07:27:36;;;;;;;7.90;7.10;;;11.90;99.90;;;;;;5091596;28;20174;-71
2024/02/15 07:30:04;;;;;;;12.13;7.63;;;11.90;99.90;;;;;;5089335;28;20575;-71
2024/02/15 07:32:31;;;;;;;10.43;7.23;;;11.90;99.90;;;;;;5091048;28;20161;-71
2024/02/15 07:34:57;;;;;;;14.03;7.27;;;11.90;99.90;;;;;;5090866;28;20169;-71
2024/02/15 07:37:25;;;;;;;13.23;6.67;;;11.90;99.90;;;;;;5091211;28;20229;-71
2024/02/15 07:39:51;;;;;;;8.73;7.43;;;11.90;99.90;;;;;;5091078;28;20193;-71
2024/02/15 07:42:17;;;;;;;9.40;7.13;;;11.90;99.90;;;;;;5072565;28;20230;-71
2024/02/15 07:44:43;;;;;;;7.67;6.60;;;12.00;99.90;;;;;;5090762;28;20180;-71
2024/02/15 07:47:10;;;;;;;12.00;6.57;;;12.00;99.90;;;;;;5091239;28;20537;-71
2024/02/15 07:49:36;;;;;;;11.93;6.80;;;12.00;99.90;;;;;;5090740;28;20181;-71
2024/02/15 07:52:04;;;;;;;9.97;6.87;;;12.00;99.90;;;;;;5072594;28;20173;-71
2024/02/15 07:54:33;;;;;;;13.33;7.47;;;12.10;99.90;;;;;;5091107;28;20658;-71
2024/02/15 07:56:59;;;;;;;8.27;6.10;;;12.10;99.90;;;;;;5089903;28;20246;-71
2024/02/15 07:59:25;;;;;;;7.80;6.17;;;12.10;99.90;;;;;;5072781;28;20194;-71
2024/02/15 08:01:50;;;;;;;9.83;6.20;;;12.10;99.90;;;;;;5090690;28;20200;-71
2024/02/15 08:04:24;;;;;;;9.77;6.37;;;12.00;99.90;;;;;;5091190;28;20677;-73
2024/02/15 08:06:53;;;;;;;9.23;6.03;;;12.00;99.90;;;;;;5090869;28;20169;-73
2024/02/15 08:09:21;;;;;;;9.87;6.27;;;12.00;99.90;;;;;;5090653;28;20693;-73
2024/02/15 08:11:48;;;;;;;8.80;6.40;;;12.00;99.90;;;;;;5090406;28;20193;-73
2024/02/15 08:14:14;;;;;;;11.80;6.60;;;11.90;99.90;;;;;;5090757;28;20168;-72
2024/02/15 08:16:41;;;;;;;8.97;6.73;;;11.90;99.90;;;;;;5072918;28;20705;-72
2024/02/15 08:19:07;;;;;;;10.70;6.23;;;12.00;99.90;;;;;;5090608;28;20559;-74
2024/02/15 08:21:35;;;;;;;11.07;6.90;;;12.00;99.90;;;;;;5090978;28;20180;-74
2024/02/15 08:24:05;;;;;;;10.30;6.60;;;12.00;99.90;;;;;;5072595;28;20177;-74
2024/02/15 08:26:37;;;;;;;10.27;6.67;;;12.00;99.90;;;;;;5072611;28;20646;-76
2024/02/15 08:29:04;;;;;;;7.83;6.27;;;11.90;99.90;;;;;;5090699;28;20189;-75
2024/02/15 08:31:36;;;;;;;13.13;6.70;;;11.90;99.90;;;;;;5090245;28;20194;-74
2024/02/15 08:34:02;;;;;;;7.83;6.53;;;11.90;99.90;;;;;;5090980;28;20654;-75
2024/02/15 08:36:30;;;;;;;12.23;6.90;;;11.90;99.90;;;;;;5072912;28;20260;-75
2024/02/15 08:38:56;;;;;;;10.80;6.37;;;12.00;99.90;;;;;;5090288;28;20185;-75
2024/02/15 08:41:26;;;;;;;10.03;6.73;;;12.00;99.90;;;;;;5072961;28;20183;-74
2024/02/15 08:43:52;;;;;;;9.43;5.77;;;12.00;99.90;;;;;;5090945;28;20638;-74
2024/02/15 08:46:19;;;;;;;8.53;6.13;;;12.10;99.90;;;;;;5073036;28;20178;-74
2024/02/15 08:48:46;;;;;;;12.67;6.57;;;12.10;99.90;;;;;;5090667;28;20193;-73
2024/02/15 08:51:12;;;;;;;8.57;6.13;;;12.10;99.90;;;;;;5090796;28;20274;-74
2024/02/15 08:53:38;;;;;;;6.20;5.60;;;12.20;99.90;;;;;;5090288;28;20173;-73
2024/02/15 08:56:04;;;;;;;7.83;5.27;;;12.20;99.90;;;;;;5090678;28;20169;-74
2024/02/15 08:58:30;;;;;;;7.40;5.20;;;12.20;99.90;;;;;;5090481;28;20192;-73
2024/02/15 09:00:57;;;;;;;7.87;5.33;;;12.20;99.90;;;;;;5090379;28;20256;-74
2024/02/15 09:03:22;;;;;;;12.93;6.43;;;12.20;99.90;;;;;;5090480;28;20170;-74
2024/02/15 09:05:48;;;;;;;8.43;5.47;;;12.20;99.90;;;;;;5090339;28;20181;-74
2024/02/15 09:08:15;;;;;;;7.83;6.23;;;12.20;99.90;;;;;;5091692;28;20197;-73
2024/02/15 09:10:42;;;;;;;7.27;5.70;;;12.20;99.90;;;;;;5093872;28;20685;-74
2024/02/15 09:13:08;;;;;;;8.30;5.43;;;12.20;99.90;;;;;;5093652;28;20719;-74
2024/02/15 09:15:34;;;;;;;8.27;6.07;;;12.20;99.90;;;;;;5094015;28;20166;-73
2024/02/15 09:17:59;;;;;;;10.37;5.53;;;12.30;99.90;;;;;;5093779;28;20180;-73
2024/02/15 09:20:28;;;;;;;7.40;5.50;;;12.30;99.90;;;;;;5093713;28;20215;-73
2024/02/15 09:22:54;;;;;;;8.60;5.80;;;12.30;99.90;;;;;;5093432;28;20173;-73
2024/02/15 09:25:24;;;;;;;13.97;6.20;;;12.50;99.90;;;;;;5093820;28;20177;-73
2024/02/15 09:27:51;;;;;;;16.50;6.03;;;12.50;99.90;;;;;;5093658;28;20173;-73
2024/02/15 09:30:17;;;;;;;8.73;5.67;;;12.60;99.90;;;;;;5093702;28;20197;-72
2024/02/15 09:32:44;;;;;;;7.53;5.00;;;12.60;99.90;;;;;;5093394;28;20197;-72
2024/02/15 09:35:14;;;;;;;9.47;6.03;;;12.70;99.90;;;;;;5093497;28;20222;-72
2024/02/15 09:37:48;;;;;;;6.30;5.33;;;12.80;99.90;;;;;;5093642;28;20181;-72
2024/02/15 09:40:16;;;;;;;8.47;5.43;;;12.80;99.90;;;;;;5093572;28;20268;-72
2024/02/15 09:42:41;;;;;;;11.40;6.20;;;12.90;99.90;;;;;;5093326;28;20235;-74
2024/02/15 09:45:12;;;;;;;5.53;5.03;;;13.10;99.90;;;;;;5075140;28;20185;-74
2024/02/15 09:47:41;;;;;;;7.23;5.10;;;13.20;99.90;;;;;;5093607;28;20256;-73
2024/02/15 09:50:15;;;;;;;8.60;5.40;;;13.40;99.90;;;;;;5093111;28;20713;-73
2024/02/15 09:52:44;;;;;;;7.33;5.10;;;13.50;99.90;;;;;;5093512;28;20170;-74
2024/02/15 09:55:13;;;;;;;6.43;4.83;;;13.60;99.90;;;;;;5093561;28;20165;-73
2024/02/15 09:57:43;;;;;;;7.30;4.93;;;13.70;99.90;;;;;;5093597;28;20161;-72
2024/02/15 10:00:13;;;;;;;9.30;4.97;;;13.70;99.90;;;;;;5075026;28;20201;-71
2024/02/15 10:02:48;;;;;;;6.50;4.77;;;13.80;99.90;;;;;;5074915;28;20678;-74
2024/02/15 10:05:13;;;;;;;5.73;4.70;;;13.80;99.90;;;;;;5093168;28;20169;-73
2024/02/15 10:07:44;;;;;;;7.53;4.60;;;13.70;99.90;;;;;;5093061;28;20170;-72
2024/02/15 10:10:20;;;;;;;7.20;4.20;;;13.70;99.90;;;;;;5092382;28;20205;-73
2024/02/15 10:12:48;;;;;;;5.50;4.37;;;13.80;99.90;;;;;;5093527;28;20169;-72
2024/02/15 10:15:37;;;;;;;8.07;4.60;;;13.80;99.90;;;;;;5092731;28;20170;-73
2024/02/15 10:18:07;;;;;;;5.33;4.17;;;13.90;99.90;;;;;;5092735;28;20245;-72
2024/02/15 10:20:34;;;;;;;5.67;4.33;;;14.00;99.90;;;;;;5092007;28;20286;-72
2024/02/15 10:22:59;;;;;;;5.57;4.50;;;14.00;99.90;;;;;;5092395;28;20173;-74
2024/02/15 10:25:27;;;;;;;4.83;4.43;;;14.20;99.90;;;;;;5074453;28;20169;-72
2024/02/15 10:28:08;;;;;;;7.77;4.43;;;14.30;99.90;;;;;;5092504;28;20537;-72
2024/02/15 10:30:36;;;;;;;6.33;4.10;;;14.50;99.90;;;;;;5092408;28;20201;-72
2024/02/15 10:33:02;;;;;;;5.10;4.27;;;14.50;99.90;;;;;;5092197;28;20162;-72
2024/02/15 10:35:28;;;;;;;11.23;5.60;;;14.70;99.90;;;;;;5092466;28;20193;-72
2024/02/15 10:38:12;;;;;;;5.80;4.60;;;14.80;99.90;;;;;;5091917;28;20201;-73
2024/02/15 10:40:42;;;;;;;5.50;4.20;;;14.90;99.90;;;;;;5092402;28;20165;-72
2024/02/15 10:43:12;;;;;;;8.30;4.47;;;15.10;99.90;;;;;;5091957;28;20184;-72
2024/02/15 10:45:39;;;;;;;8.77;4.60;;;15.20;99.90;;;;;;5092156;28;20172;-72
2024/02/15 10:48:09;;;;;;;6.03;4.13;;;15.20;99.90;;;;;;5092171;28;20744;-72
2024/02/15 10:50:35;;;;;;;6.73;4.10;;;15.20;99.90;;;;;;5092147;28;20288;-72
2024/02/15 10:53:10;;;;;;;7.83;4.17;;;15.30;99.90;;;;;;5091715;28;20192;-72
2024/02/15 10:55:46;;;;;;;4.93;4.37;;;15.40;99.90;;;;;;5092078;28;20173;-72
2024/02/15 10:58:16;;;;;;;6.57;4.17;;;15.40;99.90;;;;;;5091918;28;20185;-72
2024/02/15 11:00:43;;;;;;;5.47;4.67;;;15.50;99.90;;;;;;5091655;28;20162;-72
2024/02/15 11:03:14;;;;;;;7.03;4.40;;;15.50;99.90;;;;;;5091601;28;20230;-72
2024/02/15 11:05:41;;;;;;;6.60;3.83;;;15.60;99.90;;;;;;5091793;28;20211;-72
2024/02/15 11:08:09;;;;;;;8.80;4.23;;;15.70;99.90;;;;;;5091882;28;20188;-72
2024/02/15 11:10:36;;;;;;;5.73;3.87;;;15.80;99.90;;;;;;5092131;28;20225;-72
2024/02/15 11:13:03;;;;;;;7.00;3.40;;;16.00;99.90;;;;;;5091698;28;20244;-73
2024/02/15 11:15:46;;;;;;;5.60;3.67;;;16.30;99.90;;;;;;5091701;28;20158;-71
2024/02/15 11:18:12;;;;;;;6.73;3.30;;;16.60;99.90;;;;;;5090026;28;20250;-72
2024/02/15 11:20:38;;;;;;;5.90;4.10;;;16.80;99.90;;;;;;5090158;28;20173;-73
2024/02/15 11:23:04;;;;;;;7.63;3.80;;;16.80;99.90;;;;;;5091033;28;20204;-73
2024/02/15 11:25:34;;;;;;;3.57;3.20;;;16.80;99.90;;;;;;5091445;28;20218;-72
2024/02/15 11:28:22;;;;;;;5.27;3.60;;;16.80;99.90;;;;;;5091349;28;20533;-72
2024/02/15 11:30:48;;;;;;;7.60;3.43;;;16.80;99.90;;;;;;5090518;28;20677;-73
2024/02/15 11:33:30;;;;;;;6.67;3.77;;;16.70;99.90;;;;;;5091048;28;20216;-72
2024/02/15 11:36:06;;;;;;;6.07;3.27;;;16.70;99.90;;;;;;5091899;28;20252;-72
2024/02/15 11:38:34;;;;;;;6.63;3.73;;;16.70;99.90;;;;;;5092471;28;20257;-71
2024/02/15 11:41:04;;;;;;;6.17;3.90;;;16.90;99.90;;;;;;5090928;28;20174;-70
2024/02/15 11:43:55;;;;;;;4.10;3.53;;;17.00;99.90;;;;;;5091164;28;20247;-72
2024/02/15 11:46:24;;;;;;;6.37;3.77;;;17.10;99.90;;;;;;5091582;28;20177;-72
2024/02/15 11:48:51;;;;;;;4.83;3.53;;;17.20;99.90;;;;;;5090641;28;20193;-71
2024/02/15 11:51:45;;;;;;;6.97;4.20;;;17.30;99.90;;;;;;5091008;28;20276;-71
2024/02/15 11:54:13;;;;;;;6.53;4.03;;;17.40;99.90;;;;;;5091106;28;20169;-71
2024/02/15 11:56:51;;;;;;;4.97;3.90;;;17.40;99.90;;;;;;5091247;28;20295;-72
2024/02/15 11:59:31;;;;;;;4.87;3.43;;;17.50;99.90;;;;;;5090973;28;20215;-71
2024/02/15 12:18:52;;;;;;;5.77;4.03;;;17.90;99.90;;;;;;5091285;28;20177;-72
2024/02/15 12:21:25;;;;;;;6.53;3.70;;;17.90;99.90;;;;;;5091061;28;20589;-73
2024/02/15 12:23:52;;;;;;;6.10;3.97;;;17.90;99.90;;;;;;5091077;28;20174;-73
2024/02/15 12:26:22;;;;;;;5.97;4.20;;;17.90;99.90;;;;;;5091427;28;20166;-73
2024/02/15 12:28:56;;;;;;;5.87;3.63;;;17.90;99.90;;;;;;5089373;28;20540;-73
2024/02/15 12:31:22;;;;;;;3.67;3.20;;;18.00;99.90;;;;;;5091071;28;20357;-72
2024/02/15 12:34:13;;;;;;;9.07;3.73;;;18.10;99.90;;;;;;5090935;28;20197;-72
2024/02/15 12:36:39;;;;;;;6.47;3.17;;;18.10;99.90;;;;;;5091309;28;20162;-73
2024/02/15 12:39:14;;;;;;;5.60;3.50;;;18.20;99.90;;;;;;5090727;28;20250;-73
2024/02/15 12:41:40;;;;;;;4.73;3.13;;;18.40;99.90;;;;;;5090902;28;20187;-73
2024/02/15 12:44:07;;;;;;;6.80;2.80;;;18.50;99.90;;;;;;5094866;28;20169;-73
2024/02/15 12:46:34;;;;;;;3.10;2.87;;;18.50;99.90;;;;;;5094763;28;20180;-73
2024/02/15 12:49:21;;;;;;;3.33;3.03;;;18.40;99.90;;;;;;5094447;28;20185;-72
2024/02/15 12:51:52;;;;;;;3.27;2.70;;;18.50;99.90;;;;;;5094309;28;20205;-73
2024/02/15 12:54:21;;;;;;;2.63;2.40;;;18.50;99.90;;;;;;5095144;28;20177;-73
2024/02/15 12:56:52;;;;;;;4.03;2.23;;;18.40;99.90;;;;;;5094455;28;20211;-72
2024/02/15 12:59:19;;;;;;;3.63;2.43;;;18.50;99.90;;;;;;5094884;28;20268;-73
2024/02/15 13:01:46;;;;;;;4.83;2.50;;;18.50;99.90;;;;;;5094484;28;20169;-72
2024/02/15 13:04:28;;;;;;;3.07;2.60;;;18.40;99.90;;;;;;5094994;28;20165;-73
2024/02/15 13:06:54;;;;;;;4.00;2.50;;;18.40;99.90;;;;;;5095770;28;20172;-73
2024/02/15 13:09:22;;;;;;;4.60;2.50;;;18.30;99.90;;;;;;5094879;28;20208;-73
2024/02/15 13:11:49;;;;;;;4.27;2.80;;;18.20;99.90;;;;;;5095056;28;20201;-72
2024/02/15 13:14:15;;;;;;;5.17;2.73;;;18.10;99.90;;;;;;5095046;28;20551;-73
2024/02/15 13:16:43;;;;;;;2.87;2.53;;;18.10;99.90;;;;;;5094886;28;20549;-73
2024/02/15 13:19:08;;;;;;;2.40;2.20;;;18.00;99.90;;;;;;5094934;28;20197;-73